Flight Track Log - Related Links

Times and Time Zones

All times are in EDT time to prevent confusion due to time zone crossing. See the UAL582 flight status page for this flight to view local times or setup timezone preferences in your user account.

Time Position Orientation Groundspeed Altitude Reporting Facility
EDT Latitude Longitude Course Direction KTS MPH feet Rate Location/Type
Sun 02:49:07 AM 33.9339 -118.4433 90° East 191 220 1,400  Level Los Angeles Center
Sun 02:50:07 AM 33.8956 -118.5061 234° Southwest 237 273 3,800 2,450 Climbing Los Angeles Center
Sun 02:51:00 AM 33.7490 -118.5987 134° Southeast  Level FlightAware Approximate
Sun 02:51:07 AM 33.8414 -118.5592 219° Southwest 261 300 6,300  Level Los Angeles Center
Sun 02:52:00 AM 33.6759 -118.4718 101° East  Level FlightAware Approximate
Sun 02:52:08 AM 33.7700 -118.5411 168° South 273 314 8,700  Level Los Angeles Center
Sun 02:53:00 AM 33.6333 -118.3225 90° East  Level FlightAware Approximate
Sun 02:53:08 AM 33.6967 -118.5044 157° South 298 343 11,100  Level Los Angeles Center
Sun 02:54:00 AM 33.6333 -118.1630 90° East  Level FlightAware Approximate
Sun 02:54:08 AM 33.6628 -118.4089 113° Southeast 315 362 13,000  Level Los Angeles Center
Sun 02:55:09 AM 33.6442 -118.2961 101° East 352 405 14,600 1,736 Climbing Los Angeles Center
Sun 02:56:09 AM 33.6461 -118.1725 89° East 377 434 16,500 1,950 Climbing Los Angeles Center
Sun 02:57:09 AM 33.6450 -118.0414 91° East 393 452 18,500 1,934 Climbing Los Angeles Center
Sun 02:58:10 AM 33.6458 -117.9044 90° East 409 471 20,400 2,083 Climbing Los Angeles Center
Sun 02:59:10 AM 33.6583 -117.7383 85° East 421 484 22,700 1,950 Climbing Los Angeles Center
Sun 03:00:10 AM 33.6806 -117.5958 79° East 434 499 24,300 1,550 Climbing Los Angeles Center
Sun 03:01:10 AM 33.7036 -117.4517 79° East 441 507 25,800 1,438 Climbing Los Angeles Center
Sun 03:02:11 AM 33.7286 -117.3019 79° East 457 526 27,200 1,289 Climbing Los Angeles Center
Sun 03:03:11 AM 33.7539 -117.1486 79° East 468 539 28,400 1,100 Climbing Los Angeles Center
Sun 03:04:11 AM 33.7789 -116.9919 79° East 477 549 29,400 942 Climbing Los Angeles Center
Sun 03:05:12 AM 33.8039 -116.8308 79° East 491 565 30,300 1,240 Climbing Los Angeles Center
Sun 03:06:12 AM 33.8306 -116.6647 79° East 500 575 31,900 1,600 Climbing Los Angeles Center
Sun 03:07:12 AM 33.8564 -116.5025 79° East 497 572 33,500 1,450 Climbing Los Angeles Center
Sun 03:08:12 AM 33.8806 -116.3489 79° East 484 557 34,800 744 Climbing Los Angeles Center
Sun 03:09:13 AM 33.9044 -116.1925 80° East 477 549 35,000 99 Climbing Los Angeles Center
Sun 03:10:13 AM 33.9272 -116.0342 80° East 479 551 35,000  Level Los Angeles Center
Sun 03:11:13 AM 33.9522 -115.8772 79° East 478 550 35,000  Level Los Angeles Center
Sun 03:12:14 AM 33.9742 -115.7164 81° East 482 555 35,000  Level Los Angeles Center
Sun 03:13:14 AM 33.9981 -115.5583 80° East 480 552 35,000  Level Los Angeles Center
Sun 03:14:14 AM 34.0206 -115.4014 80° East 476 548 35,000  Level Los Angeles Center
Sun 03:15:14 AM 34.0439 -115.2447 80° East 477 549 35,000  Level Los Angeles Center
Sun 03:16:15 AM 34.0667 -115.0883 80° East 475 547 35,000  Level Los Angeles Center
Sun 03:17:15 AM 34.0883 -114.9319 80° East 475 547 35,000  Level Los Angeles Center
Sun 03:18:15 AM 34.1114 -114.7761 80° East 473 544 35,000  Level Los Angeles Center
Sun 03:19:15 AM 34.1336 -114.6200 80° East 472 543 35,000 -50 Level Los Angeles Center
Sun 03:20:16 AM 34.1558 -114.4633 80° East 473 544 34,900  Descending Los Angeles Center
Sun 03:20:51 AM 34.1686 -114.3733 80° East 474 545 35,000 63 Climbing Albuquerque Center
Sun 03:21:51 AM 34.1906 -114.2142 80° East 476 548 35,000  Level Albuquerque Center
Sun 03:22:52 AM 34.2103 -114.0572 81° East 476 548 35,000  Level Albuquerque Center
Sun 03:23:52 AM 34.2314 -113.8992 81° East 476 548 35,000  Level Albuquerque Center
Sun 03:24:52 AM 34.2544 -113.7419 80° East 476 548 35,000  Level Albuquerque Center
Sun 03:25:52 AM 34.2753 -113.5733 81° East 474 545 35,000  Level Albuquerque Center
Sun 03:26:53 AM 34.2969 -113.4142 81° East 478 550 35,000  Level Albuquerque Center
Sun 03:27:53 AM 34.3172 -113.2544 81° East 481 554 35,000  Level Albuquerque Center
Sun 03:28:53 AM 34.3381 -113.0947 81° East 480 552 35,000  Level Albuquerque Center
Sun 03:29:53 AM 34.3578 -112.9342 81° East 482 555 35,000  Level Albuquerque Center
Sun 03:30:53 AM 34.3783 -112.7722 81° East 484 557 35,000  Level Albuquerque Center
Sun 03:31:54 AM 34.3986 -112.6119 81° East 484 557 35,000  Level Albuquerque Center
Sun 03:32:54 AM 34.4178 -112.4481 82° East 487 560 35,000  Level Albuquerque Center
Sun 03:33:54 AM 34.4375 -112.2850 82° East 489 563 35,000  Level Albuquerque Center
Sun 03:34:54 AM 34.4572 -112.1217 82° East 489 563 35,000  Level Albuquerque Center
Sun 03:35:55 AM 34.4764 -111.9564 82° East 491 565 35,000  Level Albuquerque Center
Sun 03:36:55 AM 34.4958 -111.7922 82° East 490 564 35,000  Level Albuquerque Center
Sun 03:37:55 AM 34.5147 -111.6261 82° East 492 566 35,000  Level Albuquerque Center
Sun 03:38:55 AM 34.5333 -111.4603 82° East 494 568 35,000  Level Albuquerque Center
Sun 03:39:56 AM 34.5522 -111.2928 82° East 498 573 35,000  Level Albuquerque Center
Sun 03:40:56 AM 34.5711 -111.1247 82° East 501 577 35,000  Level Albuquerque Center
Sun 03:41:56 AM 34.5894 -110.9561 82° East 504 580 35,000  Level Albuquerque Center
Sun 03:42:56 AM 34.6075 -110.7883 83° East 503 579 35,000  Level Albuquerque Center
Sun 03:43:57 AM 34.6269 -110.6231 82° East 504 580 35,000  Level Albuquerque Center
Sun 03:44:57 AM 34.6431 -110.4631 83° East 501 577 35,000  Level Albuquerque Center
Sun 03:45:57 AM 34.6603 -110.3033 82° East 500 575 35,000  Level Albuquerque Center
Sun 03:46:57 AM 34.6786 -110.1164 83° East 500 575 35,000  Level Albuquerque Center
Sun 03:47:58 AM 34.6942 -109.9575 83° East 498 573 35,000  Level Albuquerque Center
Sun 03:48:58 AM 34.7097 -109.7997 83° East 495 570 35,000  Level Albuquerque Center
Sun 03:49:58 AM 34.7286 -109.6158 83° East 492 566 35,000  Level Albuquerque Center
Sun 03:50:58 AM 34.7444 -109.4567 83° East 495 570 35,000  Level Albuquerque Center
Sun 03:51:59 AM 34.7594 -109.2972 83° East 496 571 35,000  Level Albuquerque Center
Sun 03:52:59 AM 34.7736 -109.1367 84° East 498 573 35,000  Level Albuquerque Center
Sun 03:53:59 AM 34.7914 -108.9497 83° East 500 575 35,000 450 Level Albuquerque Center
Sun 03:54:59 AM 34.8061 -108.7886 84° East 502 578 35,900 843 Climbing Albuquerque Center
Sun 03:56:00 AM 34.8203 -108.6275 84° East 502 578 36,700 545 Climbing Albuquerque Center
Sun 03:57:00 AM 34.8361 -108.4533 84° East 503 579 37,000 150 Climbing Albuquerque Center
Sun 03:58:00 AM 34.8506 -108.2775 84° East 503 579 37,000  Level Albuquerque Center
Sun 03:59:00 AM 34.8650 -108.1150 84° East 505 581 37,000  Level Albuquerque Center
Sun 04:00:00 AM 34.8814 -107.9253 84° East 506 582 37,000  Level Albuquerque Center
Sun 04:01:01 AM 34.8936 -107.7742 84° East 506 582 37,000  Level Albuquerque Center
Sun 04:02:01 AM 34.9072 -107.6036 84° East 506 582 37,000  Level Albuquerque Center
Sun 04:03:01 AM 34.9208 -107.4350 84° East 504 580 37,000  Level Albuquerque Center
Sun 04:04:01 AM 34.9339 -107.2644 85° East 507 583 37,000  Level Albuquerque Center
Sun 04:05:01 AM 34.9492 -107.0822 84° East 510 587 37,000  Level Albuquerque Center
Sun 04:06:01 AM 34.9603 -106.9186 85° East 507 583 37,000  Level Albuquerque Center
Sun 04:07:02 AM 34.9725 -106.7275 85° East 504 580 37,000  Level Albuquerque Center
Sun 04:08:02 AM 34.9847 -106.5622 85° East 510 587 37,000  Level Albuquerque Center
Sun 04:09:02 AM 34.9950 -106.4139 85° East 522 601 37,000  Level Albuquerque Center
Sun 04:10:02 AM 35.0069 -106.2428 85° East 512 589 37,000  Level Albuquerque Center
Sun 04:11:02 AM 35.0200 -106.0692 85° East 513 590 37,000  Level Albuquerque Center
Sun 04:12:03 AM 35.0331 -105.8667 85° East 514 592 37,000  Level Albuquerque Center
Sun 04:13:03 AM 35.0442 -105.6922 86° East 513 590 37,000  Level Albuquerque Center
Sun 04:14:03 AM 35.0558 -105.5158 85° East 516 594 37,000  Level Albuquerque Center
Sun 04:15:03 AM 35.0664 -105.3392 86° East 516 594 37,000  Level Albuquerque Center
Sun 04:16:03 AM 35.0772 -105.1653 86° East 513 590 37,000  Level Albuquerque Center
Sun 04:17:03 AM 35.0878 -104.9928 86° East 508 585 37,000  Level Albuquerque Center
Sun 04:18:03 AM 35.0981 -104.8203 86° East 504 580 37,000  Level Albuquerque Center
Sun 04:19:04 AM 35.1069 -104.6472 86° East 507 583 37,000  Level Albuquerque Center
Sun 04:20:04 AM 35.1186 -104.4733 85° East 511 588 37,000  Level Albuquerque Center
Sun 04:21:04 AM 35.1278 -104.3006 86° East 512 589 37,000  Level Albuquerque Center
Sun 04:22:04 AM 35.1378 -104.1256 86° East 516 594 37,000  Level Albuquerque Center
Sun 04:23:04 AM 35.1458 -103.9503 87° East 517 595 37,000  Level Albuquerque Center
Sun 04:24:04 AM 35.1539 -103.7767 87° East 521 600 37,000  Level Albuquerque Center
Sun 04:25:04 AM 35.1622 -103.6003 87° East 519 597 37,000  Level Albuquerque Center
Sun 04:26:05 AM 35.1703 -103.4219 87° East 520 598 37,000  Level Albuquerque Center
Sun 04:27:05 AM 35.1778 -103.2433 87° East 522 601 37,000  Level Albuquerque Center
Sun 04:28:05 AM 35.1850 -103.0636 87° East 525 604 37,000  Level Albuquerque Center
Sun 04:29:05 AM 35.1922 -102.8889 87° East 525 604 37,000  Level Albuquerque Center
Sun 04:30:05 AM 35.1986 -102.7122 87° East 523 602 37,000  Level Albuquerque Center
Sun 04:31:05 AM 35.2047 -102.5336 88° East 526 605 37,000  Level Albuquerque Center
Sun 04:32:05 AM 35.2114 -102.3572 87° East 523 602 37,000  Level Albuquerque Center
Sun 04:33:05 AM 35.2178 -102.1833 87° East 517 595 37,000  Level Albuquerque Center
Sun 04:34:06 AM 35.2242 -102.0100 87° East 513 590 37,000  Level Albuquerque Center
Sun 04:35:06 AM 35.2319 -101.8511 87° East 510 587 37,000  Level Albuquerque Center
Sun 04:36:06 AM 35.2364 -101.6761 88° East 510 587 37,000  Level Albuquerque Center
Sun 04:37:06 AM 35.2442 -101.5036 87° East 509 586 37,000  Level Albuquerque Center
Sun 04:38:06 AM 35.2539 -101.3314 86° East 509 586 37,000  Level Albuquerque Center
Sun 04:39:06 AM 35.2600 -101.1647 87° East 509 586 37,000  Level Albuquerque Center
Sun 04:40:06 AM 35.2681 -100.9936 87° East 507 583 37,000  Level Albuquerque Center
Sun 04:41:07 AM 35.2744 -100.8206 87° East 508 585 37,000  Level Albuquerque Center
Sun 04:42:07 AM 35.2817 -100.6386 87° East 512 589 37,000  Level Albuquerque Center
Sun 04:43:07 AM 35.2886 -100.4636 87° East 514 592 37,000  Level Albuquerque Center
Sun 04:44:07 AM 35.2944 -100.2875 88° East 516 594 37,000  Level Albuquerque Center
Sun 04:45:07 AM 35.3003 -100.1117 88° East 518 596 37,000  Level Albuquerque Center
Sun 04:46:07 AM 35.3069 -99.9356 87° East 518 596 37,000  Level Albuquerque Center
Sun 04:47:07 AM 35.3122 -99.7586 88° East 520 598 37,000  Level Albuquerque Center
Sun 04:48:08 AM 35.3172 -99.5814 88° East 521 600 37,000  Level Albuquerque Center
Sun 04:49:08 AM 35.3222 -99.4033 88° East 524 603 37,000  Level Albuquerque Center
Sun 04:49:54 AM 35.3258 -99.2533 88° East 513 590 37,000  Level Fort Worth Center
Sun 04:50:54 AM 35.3283 -99.0750 89° East 513 590 37,000  Level Fort Worth Center
Sun 04:51:54 AM 35.3347 -98.9150 87° East 513 590 37,000  Level Fort Worth Center
Sun 04:52:54 AM 35.3428 -98.7394 87° East 513 590 37,000  Level Fort Worth Center
Sun 04:53:54 AM 35.3550 -98.5692 85° East 513 590 37,000  Level Fort Worth Center
Sun 04:54:54 AM 35.3689 -98.3886 85° East 500 575 37,000  Level Fort Worth Center
Sun 04:55:54 AM 35.3786 -98.2233 86° East 493 567 37,000  Level Fort Worth Center
Sun 04:56:54 AM 35.3900 -98.0578 85° East 493 567 37,000  Level Fort Worth Center
Sun 04:57:54 AM 35.3992 -97.8922 86° East 487 560 37,000  Level Fort Worth Center
Sun 04:58:54 AM 35.4078 -97.7269 86° East 487 560 37,000  Level Fort Worth Center
Sun 04:59:54 AM 35.4186 -97.5589 85° East 487 560 37,000  Level Fort Worth Center
Sun 05:00:54 AM 35.4292 -97.3856 86° East 493 567 37,000  Level Fort Worth Center
Sun 05:01:54 AM 35.4372 -97.2122 87° East 499 574 37,000  Level Fort Worth Center
Sun 05:02:54 AM 35.4453 -97.0569 86° East 499 574 37,000  Level Fort Worth Center
Sun 05:03:54 AM 35.4531 -96.8886 87° East 499 574 37,000  Level Fort Worth Center
Sun 05:04:54 AM 35.4628 -96.7203 86° East 499 574 37,000  Level Fort Worth Center
Sun 05:05:54 AM 35.4700 -96.5469 87° East 499 574 37,000  Level Fort Worth Center
Sun 05:06:54 AM 35.4792 -96.3761 86° East 499 574 37,000  Level Fort Worth Center
Sun 05:07:54 AM 35.4881 -96.2053 86° East 499 574 37,000  Level Fort Worth Center
Sun 05:08:54 AM 35.4944 -96.0317 87° East 499 574 37,000  Level Fort Worth Center
Sun 05:09:54 AM 35.5028 -95.8428 87° East 499 574 37,000  Level Fort Worth Center
Sun 05:10:54 AM 35.5006 -95.6722 91° East 499 574 37,000  Level Fort Worth Center
Sun 05:11:54 AM 35.5022 -95.4936 89° East 499 574 37,000  Level Fort Worth Center
Sun 05:12:54 AM 35.5036 -95.3203 89° East 504 580 37,000  Level Fort Worth Center
Sun 05:13:54 AM 35.5025 -95.1469 90° East 504 580 37,000  Level Fort Worth Center
Sun 05:14:54 AM 35.5075 -94.9708 88° East 509 586 37,000  Level Fort Worth Center
Sun 05:16:00 AM 35.5650 -94.8036 67° East  Level FlightAware Approximate
Sun 05:23:00 AM 35.8704 -93.7074 72° East  Level FlightAware Approximate
Sun 05:24:00 AM 35.9120 -93.5497 72° East  Level FlightAware Approximate
Sun 05:25:00 AM 35.9533 -93.3919 72° East  Level FlightAware Approximate
Sun 05:26:00 AM 35.9944 -93.2339 72° East  Level FlightAware Approximate
Sun 05:27:00 AM 36.0353 -93.0757 73° East  Level FlightAware Approximate
Sun 05:28:00 AM 36.0750 -92.9170 73° East  Level FlightAware Approximate
Sun 05:29:00 AM 36.1147 -92.7581 73° East  Level FlightAware Approximate
Sun 05:30:00 AM 36.1544 -92.5993 73° East  Level FlightAware Approximate
Sun 05:31:00 AM 36.1943 -92.4404 73° East  Level FlightAware Approximate
Sun 05:32:00 AM 36.2342 -92.2814 73° East  Level FlightAware Approximate
Sun 05:33:00 AM 36.2738 -92.1222 73° East  Level FlightAware Approximate
Sun 05:34:00 AM 36.3134 -91.9630 73° East  Level FlightAware Approximate
Sun 05:35:00 AM 36.3529 -91.8036 73° East  Level FlightAware Approximate
Sun 05:36:00 AM 36.3922 -91.6441 73° East  Level FlightAware Approximate
Sun 05:37:00 AM 36.4313 -91.4844 73° East  Level FlightAware Approximate
Sun 05:38:00 AM 36.4701 -91.3245 73° East  Level FlightAware Approximate
Sun 05:39:00 AM 36.5088 -91.1645 73° East  Level FlightAware Approximate
Sun 05:40:00 AM 36.5472 -91.0043 73° East  Level FlightAware Approximate
Sun 05:41:00 AM 36.5855 -90.8440 73° East  Level FlightAware Approximate
Sun 05:42:00 AM 36.6235 -90.6835 74° East  Level FlightAware Approximate
Sun 05:43:00 AM 36.6613 -90.5229 74° East  Level FlightAware Approximate
Sun 05:44:00 AM 36.6988 -90.3621 74° East  Level FlightAware Approximate
Sun 05:45:00 AM 36.7362 -90.2011 74° East  Level FlightAware Approximate
Sun 05:46:00 AM 36.7734 -90.0400 74° East  Level FlightAware Approximate
Sun 05:47:00 AM 36.8103 -89.8787 74° East  Level FlightAware Approximate
Sun 05:48:00 AM 36.8470 -89.7173 74° East  Level FlightAware Approximate
Sun 05:49:00 AM 36.8835 -89.5557 74° East  Level FlightAware Approximate
Sun 05:50:00 AM 36.9198 -89.3940 74° East  Level FlightAware Approximate
Sun 05:51:00 AM 36.9562 -89.2322 74° East  Level FlightAware Approximate
Sun 05:52:00 AM 36.9926 -89.0704 74° East  Level FlightAware Approximate
Sun 05:52:21 AM 37.0281 -88.9614 75° East 509 586 37,000  Level Memphis Center
Sun 05:53:00 AM 37.0287 -88.9083 74° East  Level FlightAware Approximate
Sun 05:53:21 AM 37.0617 -88.8075 75° East 486 559 37,000  Level Memphis Center
Sun 05:54:00 AM 37.0646 -88.7462 74° East  Level FlightAware Approximate
Sun 05:54:21 AM 37.0972 -88.6456 75° East 473 544 37,000  Level Memphis Center
Sun 05:55:00 AM 37.1003 -88.5839 75° East  Level FlightAware Approximate
Sun 05:56:00 AM 37.1358 -88.4214 75° East  Level FlightAware Approximate
Sun 05:56:01 AM 37.1500 -88.3739 76° East 480 552 37,000  Level Indianapolis Center
Sun 05:57:00 AM 37.1711 -88.2588 75° East  Level FlightAware Approximate
Sun 05:57:01 AM 37.1864 -88.2064 75° East 488 562 37,000  Level Indianapolis Center
Sun 05:58:01 AM 37.2244 -88.0389 74° East 493 567 37,000  Level Indianapolis Center
Sun 05:59:01 AM 37.2581 -87.8703 76° East 494 568 37,000  Level Indianapolis Center
Sun 06:00:02 AM 37.2939 -87.6997 75° East 497 572 37,000  Level Indianapolis Center
Sun 06:01:02 AM 37.3289 -87.5306 75° East 496 571 37,000  Level Indianapolis Center
Sun 06:02:02 AM 37.3636 -87.3617 75° East 495 570 37,000  Level Indianapolis Center
Sun 06:03:02 AM 37.3989 -87.1908 75° East 497 572 37,000  Level Indianapolis Center
Sun 06:04:02 AM 37.4328 -87.0206 76° East 497 572 37,000  Level Indianapolis Center
Sun 06:05:03 AM 37.4678 -86.8514 75° East 495 570 37,000  Level Indianapolis Center
Sun 06:06:03 AM 37.5017 -86.6794 76° East 497 572 37,000  Level Indianapolis Center
Sun 06:07:03 AM 37.5367 -86.5083 75° East 499 574 37,000  Level Indianapolis Center
Sun 06:08:03 AM 37.5636 -86.3656 77° East 498 573 37,000  Level Indianapolis Center
Sun 06:09:03 AM 37.6008 -86.1728 76° East 500 575 37,000  Level Indianapolis Center
Sun 06:10:04 AM 37.6331 -86.0028 76° East 499 574 37,000  Level Indianapolis Center
Sun 06:11:04 AM 37.6642 -85.8333 77° East 497 572 37,000  Level Indianapolis Center
Sun 06:12:04 AM 37.6989 -85.6592 76° East 506 582 37,000  Level Indianapolis Center
Sun 06:13:04 AM 37.7286 -85.5058 76° East 503 579 37,000  Level Indianapolis Center
Sun 06:14:05 AM 37.7578 -85.3361 78° East 494 568 37,000  Level Indianapolis Center
Sun 06:15:05 AM 37.7908 -85.1625 76° East 502 578 37,000  Level Indianapolis Center
Sun 06:16:05 AM 37.8222 -84.9903 77° East 502 578 37,000  Level Indianapolis Center
Sun 06:17:05 AM 37.8542 -84.8158 77° East 508 585 37,000  Level Indianapolis Center
Sun 06:18:05 AM 37.8836 -84.6425 78° East 504 580 37,000  Level Indianapolis Center
Sun 06:19:06 AM 37.9169 -84.4681 76° East 508 585 37,000  Level Indianapolis Center
Sun 06:20:06 AM 37.9472 -84.2947 77° East 506 582 37,000  Level Indianapolis Center
Sun 06:21:06 AM 37.9783 -84.1206 77° East 504 580 37,000  Level Indianapolis Center
Sun 06:22:06 AM 38.0086 -83.9450 78° East 509 586 37,000  Level Indianapolis Center
Sun 06:23:07 AM 38.0394 -83.7664 78° East 515 593 37,000  Level Indianapolis Center
Sun 06:24:07 AM 38.0697 -83.5911 78° East 510 587 37,000  Level Indianapolis Center
Sun 06:25:07 AM 38.0978 -83.4181 78° East 504 580 37,000  Level Indianapolis Center
Sun 06:26:07 AM 38.1278 -83.2400 78° East 510 587 37,000  Level Indianapolis Center
Sun 06:27:08 AM 38.1497 -83.0625 81° East 509 586 37,000  Level Indianapolis Center
Sun 06:28:08 AM 38.1583 -82.8839 86° East 505 581 37,000  Level Indianapolis Center
Sun 06:29:08 AM 38.1708 -82.7047 85° East 506 582 37,000  Level Indianapolis Center
Sun 06:30:09 AM 38.1839 -82.5275 85° East 504 580 37,000  Level Indianapolis Center
Sun 06:31:09 AM 38.1958 -82.3444 85° East 507 583 37,000  Level Indianapolis Center
Sun 06:32:09 AM 38.2075 -82.1664 85° East 508 585 37,000  Level Indianapolis Center
Sun 06:33:10 AM 38.2197 -81.9914 85° East 501 577 37,000  Level Indianapolis Center
Sun 06:34:10 AM 38.2294 -81.8122 86° East 508 585 37,000  Level Indianapolis Center
Sun 06:35:10 AM 38.2400 -81.6336 86° East 510 587 37,000  Level Indianapolis Center
Sun 06:36:11 AM 38.2500 -81.4558 86° East 510 587 37,000  Level Indianapolis Center
Sun 06:37:11 AM 38.2592 -81.2761 86° East 513 590 37,000  Level Indianapolis Center
Sun 06:38:04 AM 38.2669 -81.1167 86° East 491 565 37,000  Level Washington Center
Sun 06:39:04 AM 38.2781 -80.9189 86° East 503 579 37,000  Level Washington Center
Sun 06:40:04 AM 38.2900 -80.7400 85° East 503 579 37,000  Level Washington Center
Sun 06:41:04 AM 38.3000 -80.5581 86° East 503 579 37,000 -100 Level Washington Center
Sun 06:42:04 AM 38.3175 -80.3792 83° East 508 585 36,800 -1,300 Descending Washington Center
Sun 06:43:04 AM 38.3517 -80.2014 76° East 513 590 34,400 -2,150 Descending Washington Center
Sun 06:44:04 AM 38.3889 -80.0447 73° East 518 596 32,500 -2,450 Descending Washington Center
Sun 06:45:04 AM 38.4244 -79.8692 75° East 518 596 29,500 -2,550 Descending Washington Center
Sun 06:46:04 AM 38.4636 -79.7019 73° East 505 581 27,400 -2,050 Descending Washington Center
Sun 06:47:04 AM 38.4964 -79.5364 76° East 493 567 25,400 -2,000 Descending Washington Center
Sun 06:48:04 AM 38.5306 -79.3792 74° East 478 550 23,400 -2,380 Descending Washington Center
Sun 06:49:05 AM 38.5653 -79.2028 76° East 465 535 20,600 -2,400 Descending Washington Center
Sun 06:50:04 AM 38.5969 -79.0503 75° East 455 524 18,600 -1,664 Descending Washington Center
Sun 06:51:04 AM 38.6258 -78.9081 75° East 429 494 17,300 -1,600 Descending Washington Center
Sun 06:52:04 AM 38.6525 -78.7739 76° East 407 468 15,400 -1,800 Descending Washington Center
Sun 06:53:04 AM 38.6789 -78.6419 76° East 393 452 13,700 -1,700 Descending Washington Center
Sun 06:54:04 AM 38.7028 -78.5178 76° East 371 427 12,000 -1,350 Descending Washington Center
Sun 06:55:04 AM 38.7306 -78.3939 74° East 360 414 11,000 -793 Descending Washington Center
Sun 06:56:05 AM 38.7867 -78.3108 49° Northeast 317 365 10,400 -650 Descending Washington Center
Sun 06:57:04 AM 38.8589 -78.2603 29° Northeast 291 335 9,700 -655 Descending Washington Center
Sun 06:58:04 AM 38.9328 -78.2147 26° Northeast 291 335 9,100 -550 Descending Washington Center
Sun 06:59:04 AM 38.9883 -78.1500 42° Northeast 281 323 8,600 -550 Descending Washington Center
Sun 07:00:04 AM 38.9842 -78.0458 93° East 248 285 8,000 -550 Descending Washington Center
Sun 07:01:04 AM 38.9781 -77.9442 94° East 263 303 7,500 -550 Descending Washington Center
Sun 07:02:04 AM 38.9733 -77.8531 94° East 280 322 6,900 -600 Descending Washington Center
Sun 07:03:04 AM 38.9650 -77.7381 95° East 288 331 6,300 -361 Descending Washington Center
Sun 07:04:17 AM 38.9500 -77.6167 99° East 251 289 6,100 -135 Descending Potomac TRACON
Sun 07:05:17 AM 38.8833 -77.5833 159° South 225 259 6,000 -53 Descending Potomac TRACON
Sun 07:06:11 AM 38.8333 -77.5667 165° South 201 231 6,000 -632 Level Potomac TRACON
Sun 07:07:11 AM 38.7833 -77.5500 165° South 220 253 4,800 -1,000 Descending Potomac TRACON
Sun 07:08:11 AM 38.7833 -77.4833 90° East 196 226 4,000 -800 Descending Potomac TRACON

Login

Don't have an account? Register now (free) for customized features, flight alerts, and more!